KAMN/AMN METAR and TAF weather

Enter ICAO airport designator
Station Type Date Time Source
KAMN METAR 2018/12/10 19:56 UTC NOAA

KAMN 101956Z AUTO 25005KT 10SM BKN026 01/M05 A3015 RMK AO2 T00101050


Station Type Date Time Source
KAMN Decoded METAR 2018/12/10 19:56 UTC NOAA

Alma, Gratiot Community Airport, MI, United States (KAMN) 43-19-19N 084-41-16W
Dec 10, 2018 - 02:56 PM EST / 2018.12.10 1956 UTC
Wind: from the WSW (250 degrees) at 6 MPH (5 KT):0
Visibility: 10 mile(s):0
Sky conditions: mostly cloudy
Temperature: 33.8 F (1.0 C)
Windchill: 28 F (-2 C):1
Dew Point: 23.0 F (-5.0 C)
Relative Humidity: 64%
Pressure (altimeter): 30.15 in. Hg (1020 hPa)
ob: KAMN 101956Z AUTO 25005KT 10SM BKN026 01/M05 A3015 RMK AO2 T00101050
cycle: 20

Station Type Date Time Source
KAMN TAF UTC NOAA

Error!


Example: see airport list